Logan Peak - 24 Hour Table
Date & TimeSolar
Radiation
(W/m²)
Wind
Speed
(mph)
Wind
Direction
(degrees)
Air
Temperature
(°F)
Relative
Humidity
(%)
Barometeric
Pressure
(inHg)
2019/12/15 16:00 95 16.4 314 7.3 93 29.59
2019/12/15 15:00 175 15.8 316 8.1 93 29.57
2019/12/15 14:00 221 15.1 306 8.0 93 29.57
2019/12/15 13:00 258 14.8 274 7.6 93 29.57
2019/12/15 12:00 260 13.1 260 8.1 92 29.57
2019/12/15 11:00 229 12.9 237 9.8 93 29.57
2019/12/15 10:00 121 10.6 235 6.8 93 29.57
2019/12/15 09:00 29 11.4 303 4.6 92 29.55
2019/12/15 08:00 1 11.4 314 4.3 92 29.53
2019/12/15 07:00 0 10.1 311 4.8 92 29.51
2019/12/15 06:00 0 13.4 293 5.1 92 29.51
2019/12/15 05:00 0 13.7 261 5.0 93 29.53
2019/12/15 04:00 0 16.8 276 5.3 92 29.52
2019/12/15 03:00 0 14.7 259 5.3 93 29.52
2019/12/15 02:00 0 15.6 264 5.8 93 29.54
2019/12/15 01:00 0 14.0 251 6.1 93 29.52
2019/12/15 00:00 0 11.5 273 6.9 93 29.56
2019/12/14 23:00 0 12.4 284 7.9 93 29.57
2019/12/14 22:00 0 15.1 289 8.1 94 29.57
2019/12/14 21:00 0 15.1 287 8.7 94 29.57
2019/12/14 20:00 0 16.3 291 9.1 94 29.57
2019/12/14 19:00 0 15.9 306 9.9 94 29.55
2019/12/14 18:00 0 13.0 318 10.8 95 29.55
2019/12/14 17:00 20 14.5 323 11.8 95 29.57